createdAt,value
2018-11-12T00:02:26.232Z,1.70
2018-11-12T00:04:53.878Z,1.43
2018-11-12T00:07:21.778Z,0.80
2018-11-12T00:09:49.475Z,1.40
2018-11-12T00:12:17.110Z,1.20
2018-11-12T00:14:44.781Z,1.30
2018-11-12T00:17:12.484Z,1.73
2018-11-12T00:19:40.359Z,1.50
2018-11-12T00:22:07.990Z,1.40
2018-11-12T00:24:35.556Z,2.80
2018-11-12T00:27:03.220Z,1.60
2018-11-12T00:29:30.894Z,1.87
2018-11-12T00:31:58.555Z,2.83
2018-11-12T00:34:26.319Z,1.97
2018-11-12T00:37:00.021Z,1.83
2018-11-12T00:39:27.953Z,4.73
2018-11-12T00:41:55.698Z,4.80
2018-11-12T00:44:23.342Z,1.60
2018-11-12T00:46:50.964Z,2.70
2018-11-12T00:49:18.600Z,1.80
2018-11-12T00:51:46.204Z,4.10
2018-11-12T00:54:13.991Z,1.70
2018-11-12T00:56:41.825Z,3.07
2018-11-12T00:59:09.466Z,1.60
2018-11-12T01:01:37.570Z,1.90
2018-11-12T01:04:06.481Z,2.50
2018-11-12T01:06:34.186Z,1.67
2018-11-12T01:09:02.262Z,2.20
2018-11-12T01:11:29.848Z,1.73
2018-11-12T01:13:57.483Z,1.53
2018-11-12T01:16:25.146Z,4.43
2018-11-12T01:18:52.913Z,1.63
2018-11-12T01:21:20.601Z,4.10
2018-11-12T01:23:48.773Z,2.17
2018-11-12T01:26:16.528Z,2.20
2018-11-12T01:28:44.199Z,1.20
2018-11-12T01:31:11.819Z,2.37
2018-11-12T01:33:39.573Z,4.23
2018-11-12T01:36:07.222Z,1.43
2018-11-12T01:38:34.819Z,1.20
2018-11-12T01:41:02.511Z,3.33
2018-11-12T01:43:30.273Z,2.20
2018-11-12T01:45:58.001Z,1.10
2018-11-12T01:48:25.753Z,1.70
2018-11-12T01:50:53.460Z,2.40
2018-11-12T01:53:21.145Z,2.70
2018-11-12T01:55:48.798Z,1.83
2018-11-12T01:58:16.451Z,2.60
2018-11-12T02:00:44.112Z,1.27
2018-11-12T02:03:11.906Z,1.30
2018-11-12T02:05:39.616Z,1.73
2018-11-12T02:08:07.490Z,3.73
2018-11-12T02:10:35.190Z,1.60
2018-11-12T02:13:02.868Z,1.10
2018-11-12T02:15:30.526Z,2.70
2018-11-12T02:17:58.262Z,1.10
2018-11-12T02:20:25.983Z,1.13
2018-11-12T02:22:53.724Z,1.10
2018-11-12T02:25:21.400Z,4.67
2018-11-12T02:27:49.048Z,1.10
2018-11-12T02:30:23.078Z,1.40
2018-11-12T02:32:50.938Z,1.20
2018-11-12T02:35:18.703Z,1.10
2018-11-12T02:37:46.370Z,1.17
2018-11-12T02:40:14.122Z,1.10
2018-11-12T02:42:42.619Z,1.30
2018-11-12T02:45:11.496Z,1.47
2018-11-12T02:47:39.784Z,1.63
2018-11-12T02:50:08.958Z,0.93
2018-11-12T02:52:36.590Z,1.50
2018-11-12T02:55:05.257Z,2.60
2018-11-12T02:57:33.009Z,11.73
2018-11-12T03:00:00.640Z,1.07
2018-11-12T03:02:28.344Z,4.13
2018-11-12T03:04:56.044Z,0.97
2018-11-12T03:07:23.890Z,1.20
2018-11-12T03:09:51.651Z,1.27
2018-11-12T03:12:19.467Z,1.33
2018-11-12T03:14:47.157Z,2.20
2018-11-12T03:17:14.866Z,1.20
2018-11-12T03:19:42.814Z,1.80
2018-11-12T03:22:10.557Z,1.80
2018-11-12T03:24:38.337Z,3.43
2018-11-12T03:27:05.961Z,4.53
2018-11-12T03:29:33.588Z,3.03
2018-11-12T03:32:01.284Z,1.00
2018-11-12T03:34:28.944Z,5.50
2018-11-12T03:36:56.663Z,1.50
2018-11-12T03:39:24.414Z,1.13
2018-11-12T03:41:52.076Z,0.90
2018-11-12T03:44:19.865Z,0.93
2018-11-12T03:46:47.468Z,1.67
2018-11-12T03:49:15.054Z,1.53
2018-11-12T03:51:42.751Z,0.90
2018-11-12T03:54:10.685Z,1.30
2018-11-12T03:56:38.267Z,1.17
2018-11-12T03:59:05.898Z,16.77
2018-11-12T04:01:39.179Z,58.40
2018-11-12T04:04:06.994Z,25.67
2018-11-12T04:06:34.646Z,17.27
2018-11-12T04:09:03.251Z,23.23
2018-11-12T04:11:30.981Z,20.23
2018-11-12T04:13:58.736Z,15.40
2018-11-12T04:16:26.412Z,10.93
2018-11-12T04:18:54.177Z,14.10
2018-11-12T04:21:21.940Z,29.90
2018-11-12T04:23:49.827Z,22.10
2018-11-12T04:26:17.425Z,20.23
2018-11-12T04:28:45.333Z,16.83
2018-11-12T04:31:12.957Z,12.00
2018-11-12T04:33:40.744Z,4.90
2018-11-12T04:36:08.348Z,4.77
2018-11-12T04:38:36.100Z,2.13
2018-11-12T04:41:04.504Z,1.97
2018-11-12T04:43:32.316Z,3.23
2018-11-12T04:46:00.090Z,1.00
2018-11-12T04:48:27.850Z,1.97
2018-11-12T04:50:55.667Z,1.30
2018-11-12T04:53:23.589Z,1.30
2018-11-12T04:55:51.266Z,1.10
2018-11-12T04:58:19.121Z,1.10
2018-11-12T05:00:47.244Z,1.00
2018-11-12T05:03:15.193Z,1.77
2018-11-12T05:05:42.874Z,0.80
2018-11-12T05:08:10.464Z,1.07
2018-11-12T05:10:38.172Z,1.30
2018-11-12T05:13:05.887Z,1.50
2018-11-12T05:15:33.589Z,1.20
2018-11-12T05:18:01.310Z,2.10
2018-11-12T05:20:29.762Z,1.23
2018-11-12T05:22:57.530Z,48.97
2018-11-12T05:25:25.262Z,32.57
2018-11-12T05:27:52.983Z,31.97
2018-11-12T05:30:21.865Z,36.87
2018-11-12T05:32:49.748Z,17.40
2018-11-12T05:35:21.636Z,43.57
2018-11-12T05:37:49.695Z,102.77
2018-11-12T05:40:18.794Z,57.67
2018-11-12T05:42:46.561Z,39.43
2018-11-12T05:45:15.178Z,19.17
2018-11-12T05:47:43.105Z,10.83
2018-11-12T05:50:14.700Z,7.90
2018-11-12T05:52:43.879Z,4.10
2018-11-12T05:55:13.101Z,4.07
2018-11-12T05:57:41.618Z,2.63
2018-11-12T06:00:10.680Z,3.10
2018-11-12T06:02:39.803Z,2.30
2018-11-12T06:05:08.717Z,1.57
2018-11-12T06:07:36.441Z,2.13
2018-11-12T06:10:06.080Z,2.07
2018-11-12T06:12:33.912Z,4.53
2018-11-12T06:15:01.700Z,5.87
2018-11-12T06:17:29.505Z,1.93
2018-11-12T06:19:57.437Z,1.93
2018-11-12T06:22:25.258Z,4.43
2018-11-12T06:24:52.917Z,2.57
2018-11-12T06:27:20.710Z,2.30
2018-11-12T06:29:48.561Z,2.50
2018-11-12T06:32:16.356Z,1.87
2018-11-12T06:34:44.126Z,8.27
2018-11-12T06:37:11.960Z,25.70
2018-11-12T06:39:40.212Z,21.40
2018-11-12T06:42:08.325Z,16.17
2018-11-12T06:44:36.078Z,7.70
2018-11-12T06:47:04.009Z,4.47
2018-11-12T06:49:32.002Z,4.60
2018-11-12T06:52:00.121Z,4.83
2018-11-12T06:54:28.398Z,3.23
2018-11-12T06:56:56.274Z,4.30
2018-11-12T06:59:23.898Z,3.20
2018-11-12T07:01:52.071Z,3.03
2018-11-12T07:04:19.925Z,2.93
2018-11-12T07:06:47.783Z,2.30
2018-11-12T07:09:15.585Z,2.23
2018-11-12T07:11:43.719Z,4.20
2018-11-12T07:14:11.427Z,2.67
2018-11-12T07:16:39.165Z,4.70
2018-11-12T07:19:06.965Z,3.10
2018-11-12T07:21:35.656Z,1.70
2018-11-12T07:24:04.130Z,2.60
2018-11-12T07:26:31.923Z,4.27
2018-11-12T07:28:59.636Z,3.90
2018-11-12T07:31:27.701Z,3.87
2018-11-12T07:33:55.550Z,3.80
2018-11-12T07:36:23.310Z,4.23
2018-11-12T07:38:51.472Z,2.77
2018-11-12T07:41:19.419Z,2.67
2018-11-12T07:43:47.235Z,3.00
2018-11-12T07:46:15.212Z,2.90
2018-11-12T07:48:43.390Z,3.23
2018-11-12T07:51:11.460Z,3.00
2018-11-12T07:53:39.293Z,4.03
2018-11-12T07:56:07.043Z,3.53
2018-11-12T07:58:35.347Z,4.47
2018-11-12T08:01:03.127Z,3.03
2018-11-12T08:03:31.020Z,2.93
2018-11-12T08:05:58.736Z,2.70
2018-11-12T08:08:26.768Z,4.43
2018-11-12T08:10:54.537Z,3.57
2018-11-12T08:13:22.572Z,4.83
2018-11-12T08:15:50.415Z,5.30
2018-11-12T08:18:18.279Z,7.17
2018-11-12T08:20:46.214Z,7.80
2018-11-12T08:23:16.102Z,9.20
2018-11-12T08:25:44.354Z,9.23
2018-11-12T08:28:12.445Z,9.13
2018-11-12T08:30:40.187Z,14.07
2018-11-12T08:33:08.438Z,12.33
2018-11-12T08:35:37.403Z,14.83
2018-11-12T08:38:06.083Z,11.10
2018-11-12T08:40:34.737Z,16.10
2018-11-12T08:43:02.602Z,6.40
2018-11-12T08:45:30.739Z,7.27
2018-11-12T08:47:58.578Z,6.17
2018-11-12T08:50:27.280Z,4.57
2018-11-12T08:52:56.673Z,4.17
2018-11-12T08:55:25.920Z,4.00
2018-11-12T08:57:55.454Z,3.00
2018-11-12T09:00:24.397Z,4.90
2018-11-12T09:02:52.735Z,2.10
2018-11-12T09:05:22.428Z,4.93
2018-11-12T09:07:52.104Z,4.07
2018-11-12T09:10:23.314Z,3.43
2018-11-12T09:12:51.595Z,1.70
2018-11-12T09:15:19.789Z,2.60
2018-11-12T09:17:48.376Z,3.40
2018-11-12T09:20:21.592Z,3.40
2018-11-12T09:22:49.770Z,1.30
2018-11-12T09:25:20.011Z,4.20
2018-11-12T09:27:48.433Z,1.80
2018-11-12T09:30:18.591Z,2.60
2018-11-12T09:32:46.931Z,3.10
2018-11-12T09:35:16.932Z,3.27
2018-11-12T09:37:46.190Z,2.70
2018-11-12T09:40:37.700Z,3.13
2018-11-12T09:43:06.228Z,1.60
2018-11-12T09:45:34.757Z,4.00
2018-11-12T09:48:03.628Z,1.90
2018-11-12T09:50:31.985Z,1.73
2018-11-12T09:53:01.187Z,1.73
2018-11-12T09:55:31.139Z,29.40
2018-11-12T09:58:01.627Z,29.00
2018-11-12T10:00:29.649Z,9.83
2018-11-12T10:02:58.075Z,6.27
2018-11-12T10:05:26.480Z,3.50
2018-11-12T10:08:00.136Z,3.27
2018-11-12T10:10:34.370Z,5.80
2018-11-12T10:13:01.654Z,3.13
2018-11-12T10:15:31.367Z,12.03
2018-11-12T10:17:58.820Z,5.00
2018-11-12T10:20:24.184Z,3.27
2018-11-12T10:22:52.101Z,2.40
2018-11-12T10:25:20.747Z,2.13
2018-11-12T10:27:48.913Z,3.07
2018-11-12T10:30:17.224Z,2.70
2018-11-12T10:32:45.555Z,4.63
2018-11-12T10:35:13.900Z,2.97
2018-11-12T10:37:41.928Z,4.70
2018-11-12T10:40:12.418Z,3.20
2018-11-12T10:42:40.488Z,4.20
2018-11-12T10:45:09.414Z,3.17
2018-11-12T10:47:37.420Z,2.50
2018-11-12T10:50:06.027Z,3.50
2018-11-12T10:52:34.387Z,2.90
2018-11-12T10:55:05.629Z,2.47
2018-11-12T10:57:30.560Z,2.97
2018-11-12T10:59:58.674Z,2.57
2018-11-12T11:02:38.151Z,2.50
2018-11-12T11:05:06.437Z,2.93
2018-11-12T11:07:34.623Z,3.57
2018-11-12T11:10:02.307Z,6.63
2018-11-12T11:12:30.227Z,4.60
2018-11-12T11:14:58.433Z,3.87
2018-11-12T11:17:26.252Z,7.00
2018-11-12T11:19:53.999Z,6.60
2018-11-12T11:22:21.797Z,42.57
2018-11-12T11:24:49.993Z,31.00
2018-11-12T11:27:17.871Z,18.53
2018-11-12T11:29:47.309Z,16.60
2018-11-12T11:32:16.489Z,10.87
2018-11-12T11:34:44.636Z,8.37
2018-11-12T11:37:12.582Z,8.10
2018-11-12T11:39:40.495Z,5.70
2018-11-12T11:42:08.484Z,6.60
2018-11-12T11:44:36.331Z,5.03
2018-11-12T11:47:04.507Z,4.90
2018-11-12T11:49:32.648Z,4.30
2018-11-12T11:52:00.982Z,5.90
2018-11-12T11:54:29.400Z,4.00
2018-11-12T11:56:57.241Z,8.50
2018-11-12T11:59:25.198Z,3.40
2018-11-12T12:01:53.159Z,4.37
2018-11-12T12:04:21.415Z,5.43
2018-11-12T12:06:49.538Z,4.13
2018-11-12T12:09:17.723Z,3.47
2018-11-12T12:11:45.403Z,3.50
2018-11-12T12:14:13.327Z,3.40
2018-11-12T12:16:41.399Z,3.37
2018-11-12T12:19:10.303Z,4.73
2018-11-12T12:21:38.451Z,4.80
2018-11-12T12:24:06.810Z,4.20
2018-11-12T12:26:35.084Z,3.70
2018-11-12T12:29:02.962Z,6.23
2018-11-12T12:31:31.010Z,6.90
2018-11-12T12:33:59.309Z,9.30
2018-11-12T12:36:27.195Z,8.13
2018-11-12T12:38:55.027Z,37.73
2018-11-12T12:41:22.799Z,18.43
2018-11-12T12:43:50.841Z,11.90
2018-11-12T12:46:19.536Z,12.90
2018-11-12T12:48:48.070Z,15.53
2018-11-12T12:51:16.085Z,14.93
2018-11-12T12:53:44.648Z,19.73
2018-11-12T12:56:13.200Z,19.43
2018-11-12T12:58:41.246Z,17.03
2018-11-12T13:01:09.831Z,18.57
2018-11-12T13:03:38.770Z,17.20
2018-11-12T13:06:07.185Z,19.03
2018-11-12T13:08:34.941Z,20.67
2018-11-12T13:11:02.710Z,20.40
2018-11-12T13:13:32.216Z,20.00
2018-11-12T13:15:59.905Z,23.80
2018-11-12T13:18:27.900Z,15.77
2018-11-12T13:20:55.708Z,12.60
2018-11-12T13:23:23.434Z,10.43
2018-11-12T13:25:52.790Z,8.80
2018-11-12T13:28:20.600Z,9.20
2018-11-12T13:30:48.754Z,7.27
2018-11-12T13:33:16.747Z,6.33
2018-11-12T13:35:44.579Z,5.83
2018-11-12T13:38:12.443Z,6.40
2018-11-12T13:40:40.152Z,44.90
2018-11-12T13:43:08.179Z,27.03
2018-11-12T13:45:36.535Z,7.50
2018-11-12T13:48:05.008Z,7.00
2018-11-12T13:50:32.954Z,6.07
2018-11-12T13:53:02.281Z,6.00
2018-11-12T13:55:30.345Z,8.60
2018-11-12T13:57:58.826Z,5.93
2018-11-12T14:00:27.968Z,6.27
2018-11-12T14:02:56.587Z,4.77
2018-11-12T14:05:25.216Z,4.53
2018-11-12T14:07:53.267Z,3.83
2018-11-12T14:10:22.584Z,3.63
2018-11-12T14:12:51.319Z,2.83
2018-11-12T14:15:21.334Z,3.20
2018-11-12T14:17:49.771Z,5.20
2018-11-12T14:20:17.860Z,3.30
2018-11-12T14:22:45.781Z,3.47
2018-11-12T14:25:14.825Z,3.10
2018-11-12T14:27:43.327Z,3.13
2018-11-12T14:30:14.211Z,3.50
2018-11-12T14:32:42.030Z,2.80
2018-11-12T14:35:11.018Z,4.70
2018-11-12T14:37:39.233Z,3.83
2018-11-12T14:40:08.358Z,3.60
2018-11-12T14:42:37.262Z,3.77
2018-11-12T14:45:06.393Z,3.13
2018-11-12T14:47:34.360Z,3.47
2018-11-12T14:50:02.805Z,2.70
2018-11-12T14:52:31.919Z,3.40
2018-11-12T14:54:59.894Z,4.03
2018-11-12T14:57:28.234Z,3.60
2018-11-12T14:59:56.228Z,6.43
2018-11-12T15:02:24.190Z,2.40
2018-11-12T15:04:51.955Z,3.03
2018-11-12T15:07:19.740Z,4.03
2018-11-12T15:09:47.462Z,4.50
2018-11-12T15:12:15.333Z,4.03
2018-11-12T15:14:43.478Z,3.57
2018-11-12T15:17:11.481Z,3.00
2018-11-12T15:19:39.373Z,3.00
2018-11-12T15:22:07.396Z,3.30
2018-11-12T15:24:35.388Z,3.00
2018-11-12T15:27:04.593Z,3.13
2018-11-12T15:29:32.504Z,3.10
2018-11-12T15:32:00.797Z,5.20
2018-11-12T15:34:28.953Z,3.20
2018-11-12T15:36:56.923Z,3.10
2018-11-12T15:39:24.890Z,3.00
2018-11-12T15:41:52.755Z,3.87
2018-11-12T15:44:20.511Z,3.10
2018-11-12T15:46:48.316Z,2.90
2018-11-12T15:49:16.274Z,3.10
2018-11-12T15:51:44.280Z,3.17
2018-11-12T15:54:12.506Z,3.50
2018-11-12T15:56:40.817Z,3.70
2018-11-12T15:59:08.605Z,3.13
2018-11-12T16:01:36.439Z,2.77
2018-11-12T16:04:08.237Z,2.90
2018-11-12T16:06:36.366Z,4.17
2018-11-12T16:09:08.213Z,2.90
2018-11-12T16:11:36.274Z,3.73
2018-11-12T16:14:04.763Z,4.90
2018-11-12T16:16:32.697Z,4.00
2018-11-12T16:19:00.973Z,4.33
2018-11-12T16:21:29.631Z,4.13
2018-11-12T16:23:57.729Z,8.70
2018-11-12T16:26:25.591Z,5.00
2018-11-12T16:28:53.336Z,8.60
2018-11-12T16:31:21.748Z,6.77
2018-11-12T16:33:49.697Z,9.70
2018-11-12T16:36:17.834Z,10.90
2018-11-12T16:38:45.735Z,23.70
2018-11-12T16:41:13.562Z,20.90
2018-11-12T16:43:41.486Z,19.90
2018-11-12T16:46:09.402Z,15.93
2018-11-12T16:48:37.880Z,15.30
2018-11-12T16:51:05.602Z,15.00
2018-11-12T16:53:33.651Z,12.23
2018-11-12T16:56:01.467Z,13.60
2018-11-12T16:58:29.301Z,12.93
2018-11-12T17:00:57.113Z,11.70
2018-11-12T17:03:25.121Z,13.80
2018-11-12T17:05:52.971Z,12.23
2018-11-12T17:08:20.838Z,10.03
2018-11-12T17:10:48.468Z,11.57
2018-11-12T17:13:16.394Z,11.33
2018-11-12T17:15:44.005Z,10.77
2018-11-12T17:18:12.042Z,10.70
2018-11-12T17:20:39.710Z,10.33
2018-11-12T17:23:07.719Z,11.13
2018-11-12T17:25:35.302Z,10.37
2018-11-12T17:28:03.917Z,8.87
2018-11-12T17:30:31.622Z,10.93
2018-11-12T17:33:00.121Z,9.90
2018-11-12T17:35:28.298Z,9.13
2018-11-12T17:37:55.869Z,11.43
2018-11-12T17:40:24.581Z,10.93
2018-11-12T17:42:52.906Z,10.00
2018-11-12T17:45:21.747Z,10.77
2018-11-12T17:47:50.695Z,10.67
2018-11-12T17:50:18.487Z,39.30
2018-11-12T17:52:46.332Z,40.93
2018-11-12T17:55:14.037Z,28.40
2018-11-12T17:57:41.867Z,19.20
2018-11-12T18:00:19.356Z,15.90
2018-11-12T18:02:47.487Z,13.20
2018-11-12T18:05:15.208Z,15.33
2018-11-12T18:07:43.524Z,10.83
2018-11-12T18:10:11.920Z,8.87
2018-11-12T18:12:39.729Z,9.80
2018-11-12T18:15:10.302Z,11.80
2018-11-12T18:17:38.046Z,10.57
2018-11-12T18:20:09.075Z,11.57
2018-11-12T18:22:37.010Z,10.20
2018-11-12T18:25:05.352Z,13.27
2018-11-12T18:27:33.228Z,11.30
2018-11-12T18:30:01.113Z,12.27
2018-11-12T18:32:28.920Z,10.80
2018-11-12T18:34:56.664Z,10.77
2018-11-12T18:37:24.371Z,11.17
2018-11-12T18:39:52.515Z,11.00
2018-11-12T18:42:20.178Z,10.40
2018-11-12T18:44:47.872Z,10.90
2018-11-12T18:47:15.713Z,11.20
2018-11-12T18:49:43.392Z,9.93
2018-11-12T18:52:11.200Z,11.67
2018-11-12T18:54:38.959Z,8.90
2018-11-12T18:57:06.967Z,10.53
2018-11-12T18:59:34.738Z,22.80
2018-11-12T19:02:02.405Z,21.07
2018-11-12T19:04:29.986Z,13.70
2018-11-12T19:06:57.641Z,11.00
2018-11-12T19:09:25.580Z,9.50
2018-11-12T19:11:53.420Z,10.00
2018-11-12T19:14:21.282Z,8.87
2018-11-12T19:16:49.497Z,9.10
2018-11-12T19:19:18.323Z,8.30
2018-11-12T19:21:46.581Z,8.97
2018-11-12T19:24:14.477Z,8.67
2018-11-12T19:26:42.374Z,8.87
2018-11-12T19:29:10.138Z,9.00
2018-11-12T19:31:38.118Z,9.47
2018-11-12T19:34:06.235Z,8.87
2018-11-12T19:36:34.073Z,9.03
2018-11-12T19:39:02.106Z,9.50
2018-11-12T19:41:29.732Z,9.27
2018-11-12T19:43:58.070Z,9.80
2018-11-12T19:46:25.889Z,11.67
2018-11-12T19:48:54.161Z,12.10
2018-11-12T19:51:21.759Z,10.83
2018-11-12T19:53:49.753Z,11.67
2018-11-12T19:56:17.347Z,10.80
2018-11-12T19:58:45.266Z,12.13
2018-11-12T20:01:13.038Z,10.83
2018-11-12T20:03:41.158Z,10.87
2018-11-12T20:06:08.880Z,12.70
2018-11-12T20:08:37.166Z,12.43
2018-11-12T20:11:04.890Z,15.90
2018-11-12T20:13:32.787Z,15.77
2018-11-12T20:16:00.731Z,12.20
2018-11-12T20:18:28.886Z,17.03
2018-11-12T20:20:56.616Z,13.37
2018-11-12T20:23:25.621Z,14.73
2018-11-12T20:25:53.443Z,12.53
2018-11-12T20:28:21.311Z,13.10
2018-11-12T20:30:49.337Z,15.60
2018-11-12T20:33:17.382Z,11.93
2018-11-12T20:35:45.080Z,17.17
2018-11-12T20:38:13.117Z,14.20
2018-11-12T20:40:41.117Z,18.67
2018-11-12T20:43:09.059Z,37.60
2018-11-12T20:45:36.739Z,27.40
2018-11-12T20:48:06.018Z,18.83
2018-11-12T20:50:33.862Z,18.67
2018-11-12T20:53:01.783Z,14.53
2018-11-12T20:55:29.627Z,15.07
2018-11-12T20:57:57.665Z,15.87
2018-11-12T21:00:26.615Z,17.20
2018-11-12T21:02:54.723Z,12.70
2018-11-12T21:05:25.303Z,15.87
2018-11-12T21:07:53.248Z,32.37
2018-11-12T21:10:21.492Z,14.27
2018-11-12T21:12:49.638Z,15.43
2018-11-12T21:15:18.217Z,12.63
2018-11-12T21:17:45.916Z,15.80
2018-11-12T21:20:18.531Z,14.73
2018-11-12T21:22:46.235Z,14.77
2018-11-12T21:25:15.563Z,17.63
2018-11-12T21:27:43.515Z,19.10
2018-11-12T21:30:15.435Z,18.77
2018-11-12T21:32:43.730Z,17.30
2018-11-12T21:35:11.489Z,15.40
2018-11-12T21:37:39.556Z,15.23
2018-11-12T21:40:12.187Z,16.27
2018-11-12T21:42:40.237Z,15.57
2018-11-12T21:45:09.995Z,15.80
2018-11-12T21:47:38.565Z,14.60
2018-11-12T21:50:08.351Z,13.47
2018-11-12T21:52:36.252Z,15.07
2018-11-12T21:55:05.399Z,15.90
2018-11-12T21:57:33.428Z,15.27
2018-11-12T22:00:01.467Z,18.23
2018-11-12T22:02:29.215Z,14.60
2018-11-12T22:04:57.066Z,16.80
2018-11-12T22:07:25.065Z,14.00
2018-11-12T22:09:52.968Z,17.00
2018-11-12T22:12:20.834Z,17.10
2018-11-12T22:14:48.668Z,15.63
2018-11-12T22:17:16.380Z,16.00
2018-11-12T22:19:44.523Z,15.10
2018-11-12T22:22:12.037Z,15.90
2018-11-12T22:24:39.814Z,13.90
2018-11-12T22:27:07.587Z,16.70
2018-11-12T22:29:35.276Z,15.80
2018-11-12T22:32:03.163Z,19.77
2018-11-12T22:34:31.284Z,18.20
2018-11-12T22:36:59.158Z,16.00
2018-11-12T22:39:26.782Z,18.90
2018-11-12T22:41:54.686Z,15.50
2018-11-12T22:44:22.549Z,15.33
2018-11-12T22:46:50.382Z,15.20
2018-11-12T22:49:18.084Z,17.77
2018-11-12T22:51:45.912Z,16.53
2018-11-12T22:54:13.670Z,18.27
2018-11-12T22:56:41.306Z,18.70
2018-11-12T22:59:10.149Z,19.10
2018-11-12T23:01:38.327Z,16.83
2018-11-12T23:04:06.023Z,16.60
2018-11-12T23:06:33.747Z,16.27
2018-11-12T23:09:01.619Z,16.07
2018-11-12T23:11:29.474Z,17.83
2018-11-12T23:13:57.401Z,14.73
2018-11-12T23:16:25.342Z,17.90
2018-11-12T23:18:53.105Z,16.07
2018-11-12T23:21:20.825Z,17.70
2018-11-12T23:23:48.637Z,16.53
2018-11-12T23:26:16.529Z,15.30
2018-11-12T23:28:44.199Z,15.50
2018-11-12T23:31:12.439Z,15.80
2018-11-12T23:33:40.387Z,15.67
2018-11-12T23:36:08.081Z,15.63
2018-11-12T23:38:35.872Z,13.60
2018-11-12T23:41:03.646Z,18.00
2018-11-12T23:43:31.411Z,15.40
2018-11-12T23:45:59.289Z,13.47
2018-11-12T23:48:27.149Z,13.63
2018-11-12T23:50:54.893Z,14.90
2018-11-12T23:53:22.708Z,14.80
2018-11-12T23:55:50.261Z,19.13
2018-11-12T23:58:18.030Z,14.30
